sensor_id;sensor_type;location;lat;lon;timestamp;pressure;altitude;pressure_sealevel;temperature;humidity
72636;BME280;60679;48.888;15.544;2023-04-28T00:01:20;96408.88;;;3.87;51.42
72636;BME280;60679;48.888;15.544;2023-04-28T00:03:46;96406.09;;;3.81;51.58
72636;BME280;60679;48.888;15.544;2023-04-28T00:06:12;96403.31;;;3.74;51.69
72636;BME280;60679;48.888;15.544;2023-04-28T00:08:39;96406.19;;;3.65;51.91
72636;BME280;60679;48.888;15.544;2023-04-28T00:11:11;96401.41;;;3.60;51.88
72636;BME280;60679;48.888;15.544;2023-04-28T00:13:37;96398.44;;;3.55;52.02
72636;BME280;60679;48.888;15.544;2023-04-28T00:16:03;96397.31;;;3.49;52.12
72636;BME280;60679;48.888;15.544;2023-04-28T00:18:29;96396.19;;;3.44;52.16
72636;BME280;60679;48.888;15.544;2023-04-28T00:20:55;96397.38;;;3.41;52.27
72636;BME280;60679;48.888;15.544;2023-04-28T00:23:20;96402.38;;;3.36;52.40
72636;BME280;60679;48.888;15.544;2023-04-28T00:25:53;96400.41;;;3.30;52.44
72636;BME280;60679;48.888;15.544;2023-04-28T00:28:19;96397.09;;;3.28;52.55
72636;BME280;60679;48.888;15.544;2023-04-28T00:30:45;96397.44;;;3.25;52.68
72636;BME280;60679;48.888;15.544;2023-04-28T00:33:11;96400.94;;;3.26;52.78
72636;BME280;60679;48.888;15.544;2023-04-28T00:35:36;96397.34;;;3.19;52.90
72636;BME280;60679;48.888;15.544;2023-04-28T00:38:01;96400.69;;;3.13;52.86
72636;BME280;60679;48.888;15.544;2023-04-28T00:40:37;96398.06;;;3.05;53.05
72636;BME280;60679;48.888;15.544;2023-04-28T00:43:03;96398.75;;;2.99;53.16
72636;BME280;60679;48.888;15.544;2023-04-28T00:45:29;96390.28;;;2.95;53.16
72636;BME280;60679;48.888;15.544;2023-04-28T00:47:55;96397.44;;;2.95;53.45
72636;BME280;60679;48.888;15.544;2023-04-28T00:50:22;96386.13;;;2.92;53.23
72636;BME280;60679;48.888;15.544;2023-04-28T00:52:49;96392.97;;;2.87;53.63
72636;BME280;60679;48.888;15.544;2023-04-28T00:55:15;96393.47;;;2.82;53.50
72636;BME280;60679;48.888;15.544;2023-04-28T00:57:41;96382.50;;;2.77;53.81
72636;BME280;60679;48.888;15.544;2023-04-28T01:00:07;96373.50;;;2.78;53.83
72636;BME280;60679;48.888;15.544;2023-04-28T01:02:34;96373.16;;;2.81;53.70
72636;BME280;60679;48.888;15.544;2023-04-28T01:05:01;96376.00;;;2.80;53.89
72636;BME280;60679;48.888;15.544;2023-04-28T01:07:26;96381.66;;;2.77;54.03
72636;BME280;60679;48.888;15.544;2023-04-28T01:09:52;96378.69;;;2.72;54.08
72636;BME280;60679;48.888;15.544;2023-04-28T01:12:18;96378.38;;;2.67;54.05
72636;BME280;60679;48.888;15.544;2023-04-28T01:14:43;96383.22;;;2.63;54.26
72636;BME280;60679;48.888;15.544;2023-04-28T01:17:09;96378.41;;;2.59;54.28
72636;BME280;60679;48.888;15.544;2023-04-28T01:19:35;96377.75;;;2.57;54.25
72636;BME280;60679;48.888;15.544;2023-04-28T01:22:01;96372.94;;;2.52;54.43
72636;BME280;60679;48.888;15.544;2023-04-28T01:24:26;96371.63;;;2.48;54.51
72636;BME280;60679;48.888;15.544;2023-04-28T01:26:51;96372.97;;;2.44;54.62
72636;BME280;60679;48.888;15.544;2023-04-28T01:29:17;96371.47;;;2.42;54.69
72636;BME280;60679;48.888;15.544;2023-04-28T01:31:42;96374.28;;;2.40;54.80
72636;BME280;60679;48.888;15.544;2023-04-28T01:34:08;96376.63;;;2.43;54.87
72636;BME280;60679;48.888;15.544;2023-04-28T01:36:33;96372.44;;;2.49;54.71
72636;BME280;60679;48.888;15.544;2023-04-28T01:38:58;96365.13;;;2.51;54.91
72636;BME280;60679;48.888;15.544;2023-04-28T01:41:24;96370.09;;;2.46;55.06
72636;BME280;60679;48.888;15.544;2023-04-28T01:43:49;96368.16;;;2.40;55.10
72636;BME280;60679;48.888;15.544;2023-04-28T01:46:15;96368.31;;;2.38;55.13
72636;BME280;60679;48.888;15.544;2023-04-28T01:48:40;96361.34;;;2.37;55.29
72636;BME280;60679;48.888;15.544;2023-04-28T01:51:05;96368.00;;;2.33;55.20
72636;BME280;60679;48.888;15.544;2023-04-28T01:53:31;96365.66;;;2.30;55.20
72636;BME280;60679;48.888;15.544;2023-04-28T01:55:56;96360.53;;;2.28;55.39
72636;BME280;60679;48.888;15.544;2023-04-28T01:58:22;96360.69;;;2.27;55.22
72636;BME280;60679;48.888;15.544;2023-04-28T02:00:48;96365.34;;;2.25;55.64
72636;BME280;60679;48.888;15.544;2023-04-28T02:03:13;96375.34;;;2.23;55.44
72636;BME280;60679;48.888;15.544;2023-04-28T02:05:39;96363.03;;;2.22;55.38
72636;BME280;60679;48.888;15.544;2023-04-28T02:08:04;96367.72;;;2.20;55.63
72636;BME280;60679;48.888;15.544;2023-04-28T02:10:30;96369.69;;;2.18;55.64
72636;BME280;60679;48.888;15.544;2023-04-28T02:12:55;96357.53;;;2.15;55.85
72636;BME280;60679;48.888;15.544;2023-04-28T02:15:20;96350.72;;;2.13;55.98
72636;BME280;60679;48.888;15.544;2023-04-28T02:17:46;96348.06;;;2.13;55.88
72636;BME280;60679;48.888;15.544;2023-04-28T02:20:11;96353.22;;;2.14;55.71
72636;BME280;60679;48.888;15.544;2023-04-28T02:22:39;96348.06;;;2.13;55.94
72636;BME280;60679;48.888;15.544;2023-04-28T02:25:05;96339.41;;;2.11;56.25
72636;BME280;60679;48.888;15.544;2023-04-28T02:27:30;96340.06;;;2.13;56.01
72636;BME280;60679;48.888;15.544;2023-04-28T02:29:55;96339.91;;;2.14;55.97
72636;BME280;60679;48.888;15.544;2023-04-28T02:32:21;96345.72;;;2.18;56.17
72636;BME280;60679;48.888;15.544;2023-04-28T02:34:52;96340.56;;;2.16;56.20
72636;BME280;60679;48.888;15.544;2023-04-28T02:37:17;96342.91;;;2.11;56.32
72636;BME280;60679;48.888;15.544;2023-04-28T02:39:42;96346.06;;;2.07;56.32
72636;BME280;60679;48.888;15.544;2023-04-28T02:42:08;96354.59;;;2.02;56.39
72636;BME280;60679;48.888;15.544;2023-04-28T02:44:33;96351.59;;;1.97;56.56
72636;BME280;60679;48.888;15.544;2023-04-28T02:46:58;96339.59;;;1.93;56.63
72636;BME280;60679;48.888;15.544;2023-04-28T02:49:25;96341.78;;;1.90;56.64
72636;BME280;60679;48.888;15.544;2023-04-28T02:51:51;96344.75;;;1.87;56.84
72636;BME280;60679;48.888;15.544;2023-04-28T02:54:16;96344.94;;;1.85;56.85
72636;BME280;60679;48.888;15.544;2023-04-28T02:56:51;96345.59;;;1.87;56.83
72636;BME280;60679;48.888;15.544;2023-04-28T02:59:16;96341.31;;;1.86;56.80
72636;BME280;60679;48.888;15.544;2023-04-28T03:01:42;96340.78;;;1.83;57.06
72636;BME280;60679;48.888;15.544;2023-04-28T03:04:07;96332.16;;;1.81;57.01
72636;BME280;60679;48.888;15.544;2023-04-28T03:06:32;96330.97;;;1.75;57.38
72636;BME280;60679;48.888;15.544;2023-04-28T03:08:58;96333.81;;;1.73;57.14
72636;BME280;60679;48.888;15.544;2023-04-28T03:11:23;96333.31;;;1.70;56.96
72636;BME280;60679;48.888;15.544;2023-04-28T03:13:48;96336.31;;;1.67;57.23
72636;BME280;60679;48.888;15.544;2023-04-28T03:16:14;96336.63;;;1.64;57.43
72636;BME280;60679;48.888;15.544;2023-04-28T03:18:39;96343.63;;;1.65;57.49
72636;BME280;60679;48.888;15.544;2023-04-28T03:21:05;96335.81;;;1.63;57.50
72636;BME280;60679;48.888;15.544;2023-04-28T03:23:30;96339.81;;;1.59;57.77
72636;BME280;60679;48.888;15.544;2023-04-28T03:25:56;96341.81;;;1.57;57.91
72636;BME280;60679;48.888;15.544;2023-04-28T03:28:21;96347.78;;;1.59;57.88
72636;BME280;60679;48.888;15.544;2023-04-28T03:30:46;96345.78;;;1.61;57.72
72636;BME280;60679;48.888;15.544;2023-04-28T03:33:12;96344.63;;;1.64;57.93
72636;BME280;60679;48.888;15.544;2023-04-28T03:35:37;96348.94;;;1.65;57.95
72636;BME280;60679;48.888;15.544;2023-04-28T03:38:02;96354.78;;;1.68;57.79
72636;BME280;60679;48.888;15.544;2023-04-28T03:40:28;96345.63;;;1.71;57.96
72636;BME280;60679;48.888;15.544;2023-04-28T03:42:53;96346.63;;;1.70;58.09
72636;BME280;60679;48.888;15.544;2023-04-28T03:45:18;96348.44;;;1.69;58.01
72636;BME280;60679;48.888;15.544;2023-04-28T03:47:44;96346.28;;;1.73;58.04
72636;BME280;60679;48.888;15.544;2023-04-28T03:50:09;96343.63;;;1.73;58.12
72636;BME280;60679;48.888;15.544;2023-04-28T03:52:35;96340.13;;;1.72;57.93
72636;BME280;60679;48.888;15.544;2023-04-28T03:55:00;96340.81;;;1.74;58.10
72636;BME280;60679;48.888;15.544;2023-04-28T03:57:25;96331.66;;;1.77;58.27
72636;BME280;60679;48.888;15.544;2023-04-28T03:59:51;96335.28;;;1.84;57.97
72636;BME280;60679;48.888;15.544;2023-04-28T04:02:16;96340.44;;;1.94;58.00
72636;BME280;60679;48.888;15.544;2023-04-28T04:04:43;96337.13;;;2.00;57.90
72636;BME280;60679;48.888;15.544;2023-04-28T04:07:10;96341.91;;;2.04;57.92
72636;BME280;60679;48.888;15.544;2023-04-28T04:09:38;96334.25;;;2.09;58.09
72636;BME280;60679;48.888;15.544;2023-04-28T04:12:04;96331.41;;;2.19;58.12
72636;BME280;60679;48.888;15.544;2023-04-28T04:14:30;96332.75;;;2.23;58.16
72636;BME280;60679;48.888;15.544;2023-04-28T04:16:56;96335.03;;;2.26;58.16
72636;BME280;60679;48.888;15.544;2023-04-28T04:19:21;96332.88;;;2.29;57.99
72636;BME280;60679;48.888;15.544;2023-04-28T04:21:48;96335.03;;;2.34;57.88
72636;BME280;60679;48.888;15.544;2023-04-28T04:24:13;96329.19;;;2.39;58.02
72636;BME280;60679;48.888;15.544;2023-04-28T04:26:39;96334.16;;;2.42;58.09
72636;BME280;60679;48.888;15.544;2023-04-28T04:29:04;96330.50;;;2.43;58.06
72636;BME280;60679;48.888;15.544;2023-04-28T04:31:30;96334.66;;;2.45;58.17
72636;BME280;60679;48.888;15.544;2023-04-28T04:33:55;96333.31;;;2.49;57.96
72636;BME280;60679;48.888;15.544;2023-04-28T04:36:21;96325.47;;;2.56;58.13
72636;BME280;60679;48.888;15.544;2023-04-28T04:38:46;96325.41;;;2.64;57.90
72636;BME280;60679;48.888;15.544;2023-04-28T04:41:12;96330.66;;;2.80;57.93
72636;BME280;60679;48.888;15.544;2023-04-28T04:43:37;96331.91;;;3.00;57.66
72636;BME280;60679;48.888;15.544;2023-04-28T04:46:03;96337.09;;;3.24;57.73
72636;BME280;60679;48.888;15.544;2023-04-28T04:48:28;96333.25;;;3.49;57.40
72636;BME280;60679;48.888;15.544;2023-04-28T04:50:53;96329.81;;;3.78;57.12
72636;BME280;60679;48.888;15.544;2023-04-28T04:53:19;96319.09;;;4.01;56.90
72636;BME280;60679;48.888;15.544;2023-04-28T04:55:44;96319.41;;;4.21;56.67
72636;BME280;60679;48.888;15.544;2023-04-28T04:58:10;96304.09;;;4.29;56.87
72636;BME280;60679;48.888;15.544;2023-04-28T05:00:35;96310.97;;;4.32;56.82
72636;BME280;60679;48.888;15.544;2023-04-28T05:03:01;96308.09;;;4.33;56.94
72636;BME280;60679;48.888;15.544;2023-04-28T05:05:28;96311.22;;;4.37;57.06
72636;BME280;60679;48.888;15.544;2023-04-28T05:07:53;96312.13;;;4.44;56.97
72636;BME280;60679;48.888;15.544;2023-04-28T05:10:19;96312.34;;;4.57;56.83
72636;BME280;60679;48.888;15.544;2023-04-28T05:12:44;96311.75;;;4.76;56.85
72636;BME280;60679;48.888;15.544;2023-04-28T05:15:11;96310.31;;;4.95;56.39
72636;BME280;60679;48.888;15.544;2023-04-28T05:17:36;96298.59;;;5.10;56.54
72636;BME280;60679;48.888;15.544;2023-04-28T05:20:03;96305.75;;;5.24;56.41
72636;BME280;60679;48.888;15.544;2023-04-28T05:22:28;96298.91;;;5.43;56.42
72636;BME280;60679;48.888;15.544;2023-04-28T05:24:55;96297.25;;;5.63;56.13
72636;BME280;60679;48.888;15.544;2023-04-28T05:27:20;96302.59;;;5.84;55.82
72636;BME280;60679;48.888;15.544;2023-04-28T05:29:46;96304.00;;;6.02;55.77
72636;BME280;60679;48.888;15.544;2023-04-28T05:32:12;96311.16;;;6.22;55.76
72636;BME280;60679;48.888;15.544;2023-04-28T05:34:37;96313.44;;;6.53;55.09
72636;BME280;60679;48.888;15.544;2023-04-28T05:37:03;96319.78;;;6.80;54.97
72636;BME280;60679;48.888;15.544;2023-04-28T05:39:28;96321.94;;;7.04;54.82
72636;BME280;60679;48.888;15.544;2023-04-28T05:41:53;96325.53;;;7.24;54.43
72636;BME280;60679;48.888;15.544;2023-04-28T05:44:19;96314.25;;;7.42;54.24
72636;BME280;60679;48.888;15.544;2023-04-28T05:46:44;96314.25;;;7.55;53.97
72636;BME280;60679;48.888;15.544;2023-04-28T05:49:10;96317.59;;;7.70;53.92
72636;BME280;60679;48.888;15.544;2023-04-28T05:51:35;96324.66;;;7.84;53.71
72636;BME280;60679;48.888;15.544;2023-04-28T05:54:01;96320.72;;;8.06;53.48
72636;BME280;60679;48.888;15.544;2023-04-28T05:56:27;96315.16;;;8.34;52.92
72636;BME280;60679;48.888;15.544;2023-04-28T05:58:52;96311.59;;;8.60;52.67
72636;BME280;60679;48.888;15.544;2023-04-28T06:01:18;96306.59;;;8.70;52.79
72636;BME280;60679;48.888;15.544;2023-04-28T06:03:43;96311.53;;;8.86;52.69
72636;BME280;60679;48.888;15.544;2023-04-28T06:06:09;96305.06;;;9.00;52.39
72636;BME280;60679;48.888;15.544;2023-04-28T06:08:35;96303.56;;;9.11;52.40
72636;BME280;60679;48.888;15.544;2023-04-28T06:11:01;96303.09;;;9.20;52.44
72636;BME280;60679;48.888;15.544;2023-04-28T06:13:26;96303.06;;;9.34;52.14
72636;BME280;60679;48.888;15.544;2023-04-28T06:15:52;96299.47;;;9.46;52.00
72636;BME280;60679;48.888;15.544;2023-04-28T06:18:17;96306.28;;;9.49;51.99
72636;BME280;60679;48.888;15.544;2023-04-28T06:20:43;96304.38;;;9.56;52.36
72636;BME280;60679;48.888;15.544;2023-04-28T06:23:08;96294.28;;;9.45;52.00
72636;BME280;60679;48.888;15.544;2023-04-28T06:25:34;96298.72;;;9.26;52.28
72636;BME280;60679;48.888;15.544;2023-04-28T06:28:01;96305.00;;;9.13;52.51
72636;BME280;60679;48.888;15.544;2023-04-28T06:30:26;96300.13;;;8.97;52.46
72636;BME280;60679;48.888;15.544;2023-04-28T06:32:51;96307.44;;;8.77;52.70
72636;BME280;60679;48.888;15.544;2023-04-28T06:35:17;96300.59;;;8.68;53.22
72636;BME280;60679;48.888;15.544;2023-04-28T06:37:43;96290.81;;;8.87;52.76
72636;BME280;60679;48.888;15.544;2023-04-28T06:40:09;96292.63;;;9.06;52.30
72636;BME280;60679;48.888;15.544;2023-04-28T06:42:34;96263.50;;;9.27;52.18
72636;BME280;60679;48.888;15.544;2023-04-28T06:45:00;96256.56;;;9.45;51.80
72636;BME280;60679;48.888;15.544;2023-04-28T06:47:26;96265.59;;;9.57;51.89
72636;BME280;60679;48.888;15.544;2023-04-28T06:49:51;96269.25;;;9.69;51.63
72636;BME280;60679;48.888;15.544;2023-04-28T06:52:18;96275.31;;;9.64;51.81
72636;BME280;60679;48.888;15.544;2023-04-28T06:54:45;96279.56;;;9.47;52.02
72636;BME280;60679;48.888;15.544;2023-04-28T06:57:11;96280.81;;;9.45;52.33
72636;BME280;60679;48.888;15.544;2023-04-28T06:59:36;96272.50;;;9.46;52.01
72636;BME280;60679;48.888;15.544;2023-04-28T07:02:02;96259.66;;;9.48;52.23
72636;BME280;60679;48.888;15.544;2023-04-28T07:04:27;96269.34;;;9.56;52.06
72636;BME280;60679;48.888;15.544;2023-04-28T07:06:53;96263.91;;;9.62;51.87
72636;BME280;60679;48.888;15.544;2023-04-28T07:09:18;96268.03;;;9.65;51.59
72636;BME280;60679;48.888;15.544;2023-04-28T07:11:44;96265.00;;;9.79;51.51
72636;BME280;60679;48.888;15.544;2023-04-28T07:14:09;96254.75;;;9.95;51.29
72636;BME280;60679;48.888;15.544;2023-04-28T07:16:35;96261.44;;;10.17;50.99
72636;BME280;60679;48.888;15.544;2023-04-28T07:19:00;96256.56;;;10.86;49.91
72636;BME280;60679;48.888;15.544;2023-04-28T07:21:26;96259.72;;;11.79;48.90
72636;BME280;60679;48.888;15.544;2023-04-28T07:23:52;96252.84;;;12.18;48.36
72636;BME280;60679;48.888;15.544;2023-04-28T07:26:23;96251.06;;;12.12;48.41
72636;BME280;60679;48.888;15.544;2023-04-28T07:28:49;96250.25;;;12.23;48.19
72636;BME280;60679;48.888;15.544;2023-04-28T07:31:14;96255.91;;;12.45;48.09
72636;BME280;60679;48.888;15.544;2023-04-28T07:33:39;96258.97;;;12.71;47.88
72636;BME280;60679;48.888;15.544;2023-04-28T07:36:06;96257.16;;;13.00;47.24
72636;BME280;60679;48.888;15.544;2023-04-28T07:38:33;96245.94;;;13.48;46.61
72636;BME280;60679;48.888;15.544;2023-04-28T07:40:59;96247.94;;;13.98;45.72
72636;BME280;60679;48.888;15.544;2023-04-28T07:43:24;96255.88;;;14.49;45.21
72636;BME280;60679;48.888;15.544;2023-04-28T07:45:49;96249.22;;;15.17;44.64
72636;BME280;60679;48.888;15.544;2023-04-28T07:48:15;96237.53;;;15.38;44.23
72636;BME280;60679;48.888;15.544;2023-04-28T07:50:40;96237.41;;;15.49;44.15
72636;BME280;60679;48.888;15.544;2023-04-28T07:53:06;96241.13;;;15.65;43.84
72636;BME280;60679;48.888;15.544;2023-04-28T07:55:31;96239.59;;;15.74;43.71
72636;BME280;60679;48.888;15.544;2023-04-28T07:57:57;96236.25;;;15.94;43.46
72636;BME280;60679;48.888;15.544;2023-04-28T08:00:23;96230.47;;;16.17;43.29
72636;BME280;60679;48.888;15.544;2023-04-28T08:02:48;96230.03;;;16.30;43.37
72636;BME280;60679;48.888;15.544;2023-04-28T08:05:15;96230.19;;;16.50;43.06
72636;BME280;60679;48.888;15.544;2023-04-28T08:07:41;96236.53;;;16.56;42.49
72636;BME280;60679;48.888;15.544;2023-04-28T08:10:08;96236.66;;;16.76;42.15
72636;BME280;60679;48.888;15.544;2023-04-28T08:12:34;96232.31;;;16.85;41.82
72636;BME280;60679;48.888;15.544;2023-04-28T08:14:59;96215.84;;;17.12;41.77
72636;BME280;60679;48.888;15.544;2023-04-28T08:17:25;96213.75;;;17.34;41.39
72636;BME280;60679;48.888;15.544;2023-04-28T08:19:51;96219.31;;;17.59;41.11
72636;BME280;60679;48.888;15.544;2023-04-28T08:22:16;96221.81;;;17.66;41.05
72636;BME280;60679;48.888;15.544;2023-04-28T08:24:41;96217.47;;;17.75;40.62
72636;BME280;60679;48.888;15.544;2023-04-28T08:27:07;96216.94;;;17.98;40.49
72636;BME280;60679;48.888;15.544;2023-04-28T08:29:32;96212.84;;;18.41;40.17
72636;BME280;60679;48.888;15.544;2023-04-28T08:31:58;96212.53;;;18.98;39.40
72636;BME280;60679;48.888;15.544;2023-04-28T08:34:25;96205.38;;;19.81;38.18
72636;BME280;60679;48.888;15.544;2023-04-28T08:36:51;96190.91;;;20.48;37.18
72636;BME280;60679;48.888;15.544;2023-04-28T08:39:17;96195.97;;;20.31;37.67
72636;BME280;60679;48.888;15.544;2023-04-28T08:41:43;96191.16;;;20.13;37.48
72636;BME280;60679;48.888;15.544;2023-04-28T08:44:09;96193.19;;;20.36;37.17
72636;BME280;60679;48.888;15.544;2023-04-28T08:46:39;96191.78;;;20.39;37.23
72636;BME280;60679;48.888;15.544;2023-04-28T08:49:06;96178.66;;;20.64;37.13
72636;BME280;60679;48.888;15.544;2023-04-28T08:51:43;96182.22;;;20.65;37.30
72636;BME280;60679;48.888;15.544;2023-04-28T08:54:08;96187.59;;;21.04;36.82
72636;BME280;60679;48.888;15.544;2023-04-28T08:56:35;96196.28;;;21.16;36.17
72636;BME280;60679;48.888;15.544;2023-04-28T08:59:01;96183.56;;;21.20;36.07
72636;BME280;60679;48.888;15.544;2023-04-28T09:01:28;96174.38;;;21.53;36.10
72636;BME280;60679;48.888;15.544;2023-04-28T09:03:55;96157.97;;;21.67;35.99
72636;BME280;60679;48.888;15.544;2023-04-28T09:06:20;96157.53;;;22.16;35.47
72636;BME280;60679;48.888;15.544;2023-04-28T09:08:47;96162.53;;;22.78;34.08
72636;BME280;60679;48.888;15.544;2023-04-28T09:11:12;96153.19;;;23.61;33.21
72636;BME280;60679;48.888;15.544;2023-04-28T09:13:39;96145.34;;;23.90;33.02
72636;BME280;60679;48.888;15.544;2023-04-28T09:16:05;96136.50;;;24.91;31.72
72636;BME280;60679;48.888;15.544;2023-04-28T09:18:30;96147.25;;;25.32;31.37
72636;BME280;60679;48.888;15.544;2023-04-28T09:21:07;96145.31;;;26.23;30.73
72636;BME280;60679;48.888;15.544;2023-04-28T09:23:34;96141.22;;;26.55;30.11
72636;BME280;60679;48.888;15.544;2023-04-28T09:26:04;96145.41;;;25.66;31.19
72636;BME280;60679;48.888;15.544;2023-04-28T09:28:33;96141.69;;;25.71;30.91
72636;BME280;60679;48.888;15.544;2023-04-28T09:30:59;96144.09;;;27.39;29.08
72636;BME280;60679;48.888;15.544;2023-04-28T09:33:24;96130.78;;;30.31;26.23
72636;BME280;60679;48.888;15.544;2023-04-28T09:35:50;96141.31;;;29.49;27.33
72636;BME280;60679;48.888;15.544;2023-04-28T09:38:16;96144.75;;;27.44;29.37
72636;BME280;60679;48.888;15.544;2023-04-28T09:43:31;96134.75;;;34.20;22.63
72636;BME280;60679;48.888;15.544;2023-04-28T09:46:02;96137.00;;;37.08;21.05
72636;BME280;60679;48.888;15.544;2023-04-28T09:48:33;96130.22;;;38.50;20.09
72636;BME280;60679;48.888;15.544;2023-04-28T09:51:03;96123.63;;;40.12;19.26
72636;BME280;60679;48.888;15.544;2023-04-28T09:53:30;96113.50;;;41.20;18.44
72636;BME280;60679;48.888;15.544;2023-04-28T09:55:57;96123.19;;;40.58;19.09
72636;BME280;60679;48.888;15.544;2023-04-28T09:58:24;96115.56;;;42.23;17.91
72636;BME280;60679;48.888;15.544;2023-04-28T10:00:57;96108.41;;;38.61;21.11
72636;BME280;60679;48.888;15.544;2023-04-28T10:03:25;96101.53;;;35.62;22.91
72636;BME280;60679;48.888;15.544;2023-04-28T10:05:51;96106.72;;;33.94;23.99
72636;BME280;60679;48.888;15.544;2023-04-28T10:08:18;96110.88;;;31.16;26.26
72636;BME280;60679;48.888;15.544;2023-04-28T10:10:45;96112.06;;;29.80;27.33
72636;BME280;60679;48.888;15.544;2023-04-28T10:13:16;96102.84;;;30.03;26.41
72636;BME280;60679;48.888;15.544;2023-04-28T10:15:43;96110.38;;;30.15;26.05
72636;BME280;60679;48.888;15.544;2023-04-28T10:18:10;96110.16;;;28.87;27.11
72636;BME280;60679;48.888;15.544;2023-04-28T10:20:36;96109.69;;;28.97;26.63
72636;BME280;60679;48.888;15.544;2023-04-28T10:25:55;96091.19;;;30.81;24.96
72636;BME280;60679;48.888;15.544;2023-04-28T10:28:22;96088.53;;;31.31;24.51
72636;BME280;60679;48.888;15.544;2023-04-28T10:31:10;96089.97;;;31.72;23.72
72636;BME280;60679;48.888;15.544;2023-04-28T10:33:36;96084.66;;;31.36;24.13
72636;BME280;60679;48.888;15.544;2023-04-28T10:36:02;96079.66;;;30.82;24.28
72636;BME280;60679;48.888;15.544;2023-04-28T10:38:28;96072.69;;;31.35;24.07
72636;BME280;60679;48.888;15.544;2023-04-28T10:40:54;96074.84;;;31.58;23.59
72636;BME280;60679;48.888;15.544;2023-04-28T10:56:13;96045.16;;;31.03;23.80
72636;BME280;60679;48.888;15.544;2023-04-28T10:58:47;96033.16;;;30.15;24.85
72636;BME280;60679;48.888;15.544;2023-04-28T11:04:05;96036.22;;;28.41;26.42
72636;BME280;60679;48.888;15.544;2023-04-28T11:07:08;96027.00;;;27.25;27.37
72636;BME280;60679;48.888;15.544;2023-04-28T11:21:46;95998.41;;;23.05;30.67
72636;BME280;60679;48.888;15.544;2023-04-28T11:24:12;96004.63;;;22.56;30.62
72636;BME280;60679;48.888;15.544;2023-04-28T11:26:37;96007.63;;;22.00;31.33
72636;BME280;60679;48.888;15.544;2023-04-28T11:29:03;96013.91;;;21.68;31.31
72636;BME280;60679;48.888;15.544;2023-04-28T11:31:29;96016.56;;;21.22;31.89
72636;BME280;60679;48.888;15.544;2023-04-28T11:34:08;96022.84;;;20.80;32.05
72636;BME280;60679;48.888;15.544;2023-04-28T11:36:40;96019.91;;;20.53;32.51
72636;BME280;60679;48.888;15.544;2023-04-28T11:39:08;96027.97;;;20.44;32.50
72636;BME280;60679;48.888;15.544;2023-04-28T11:41:35;96024.34;;;20.25;32.82
72636;BME280;60679;48.888;15.544;2023-04-28T11:44:09;96017.34;;;20.09;32.92
72636;BME280;60679;48.888;15.544;2023-04-28T11:46:35;96020.44;;;20.02;33.27
72636;BME280;60679;48.888;15.544;2023-04-28T11:49:04;96010.47;;;19.83;33.75
72636;BME280;60679;48.888;15.544;2023-04-28T11:51:36;96008.94;;;19.72;33.49
72636;BME280;60679;48.888;15.544;2023-04-28T11:54:04;96010.75;;;19.47;33.75
72636;BME280;60679;48.888;15.544;2023-04-28T11:56:35;96018.31;;;19.27;33.93
72636;BME280;60679;48.888;15.544;2023-04-28T11:59:06;96017.59;;;19.06;34.26
72636;BME280;60679;48.888;15.544;2023-04-28T12:01:35;96028.97;;;18.84;34.55
72636;BME280;60679;48.888;15.544;2023-04-28T12:04:08;96029.56;;;18.66;34.74
72636;BME280;60679;48.888;15.544;2023-04-28T12:06:33;96034.53;;;18.64;34.76
72636;BME280;60679;48.888;15.544;2023-04-28T12:08:59;96033.47;;;18.55;34.89
72636;BME280;60679;48.888;15.544;2023-04-28T12:11:28;96032.66;;;18.50;34.92
72636;BME280;60679;48.888;15.544;2023-04-28T12:14:05;96035.69;;;18.48;35.30
72636;BME280;60679;48.888;15.544;2023-04-28T12:16:41;96027.72;;;18.57;35.25
72636;BME280;60679;48.888;15.544;2023-04-28T12:19:08;96028.00;;;18.55;35.33
72636;BME280;60679;48.888;15.544;2023-04-28T12:21:36;96023.88;;;18.48;35.34
72636;BME280;60679;48.888;15.544;2023-04-28T12:24:19;96031.88;;;18.24;35.79
72636;BME280;60679;48.888;15.544;2023-04-28T12:26:46;96033.56;;;18.05;35.77
72636;BME280;60679;48.888;15.544;2023-04-28T12:29:38;96034.72;;;17.83;36.26
72636;BME280;60679;48.888;15.544;2023-04-28T12:32:09;96042.88;;;17.78;36.29
72636;BME280;60679;48.888;15.544;2023-04-28T12:34:36;96046.47;;;17.64;36.79
72636;BME280;60679;48.888;15.544;2023-04-28T12:37:02;96057.59;;;17.37;36.86
72636;BME280;60679;48.888;15.544;2023-04-28T12:39:33;96057.56;;;17.17;37.12
72636;BME280;60679;48.888;15.544;2023-04-28T12:42:00;96054.56;;;17.03;37.34
72636;BME280;60679;48.888;15.544;2023-04-28T12:44:27;96062.19;;;17.06;37.19
72636;BME280;60679;48.888;15.544;2023-04-28T12:46:53;96054.00;;;17.06;37.35
72636;BME280;60679;48.888;15.544;2023-04-28T12:49:19;96055.09;;;17.10;37.44
72636;BME280;60679;48.888;15.544;2023-04-28T12:51:45;96053.78;;;17.18;37.40
72636;BME280;60679;48.888;15.544;2023-04-28T12:54:10;96040.91;;;17.13;37.60
72636;BME280;60679;48.888;15.544;2023-04-28T12:56:35;96048.84;;;17.15;37.79
72636;BME280;60679;48.888;15.544;2023-04-28T12:59:01;96048.84;;;17.10;37.92
72636;BME280;60679;48.888;15.544;2023-04-28T13:01:28;96051.28;;;17.06;38.07
72636;BME280;60679;48.888;15.544;2023-04-28T13:03:54;96047.19;;;16.99;38.25
72636;BME280;60679;48.888;15.544;2023-04-28T13:06:19;96054.00;;;17.01;38.41
72636;BME280;60679;48.888;15.544;2023-04-28T13:08:44;96051.28;;;17.06;38.01
72636;BME280;60679;48.888;15.544;2023-04-28T13:11:10;96051.81;;;17.03;38.19
72636;BME280;60679;48.888;15.544;2023-04-28T13:13:36;96046.06;;;16.90;38.38
72636;BME280;60679;48.888;15.544;2023-04-28T13:16:01;96039.25;;;16.87;38.51
72636;BME280;60679;48.888;15.544;2023-04-28T13:18:29;96038.13;;;16.88;38.79
72636;BME280;60679;48.888;15.544;2023-04-28T13:20:54;96053.41;;;16.84;38.83
72636;BME280;60679;48.888;15.544;2023-04-28T13:23:20;96044.94;;;16.81;39.06
72636;BME280;60679;48.888;15.544;2023-04-28T13:25:45;96039.75;;;16.79;39.15